Vicente Lopez, Argentina
Current Conditions -  °F | °C
As of 8:00 PM on Sunday 21 Dec 2014 (Local Time) from SABE Reporting Station
Scattered Clouds Scattered Clouds  
Wind Chill: 72°   Ceiling: Unl
Heat Index: 72°   Visibility: 6mi
Dew Point: 52°   Wind: 6mph
Humidity: 50%   Direction: 180°S
Pressure: 29.8"   Gusts: NA
Location:  34.53°S, 58.47°W
Report Text: SABE 212300Z 18005KT 9999 FEW030 SCT04522/11 Q1009
Loading
Personal Weather Stations






























Interactive Weather Map New forecast layout! Learn more

10-Day Weather Forecast

Advertisements
Track Severe Weather on mobile